Orchard Park, NY (14127)

12:00 PM EDT on July 30, 2016 (GMT -0400)
Hawthorne Dr. | | Change Station

Elev 787 ft 42.78 °N, 78.74 °W | Updated 7 seconds ago

Mostly Cloudy
Mostly Cloudy
69.4 °F
Feels Like 69.4 °F
N
4.0
Wind Variable Wind from NW
Gusts 5.0 mph

Today
High -- | Low -- °F
--% Chance of Precip.
Yesterday
High -- | Low -- °F
Precip. -- in
Pressure 30.03 in
Visibility 10.0 miles
Clouds Few 4000 ft
Mostly Cloudy 7000 ft
Mostly Cloudy 11000 ft
Mostly Cloudy 14000 ft
Dew Point 66 °F
Humidity 89%
Rainfall 0.07 in
Snow Depth Not available.
6:04 AM 8:37 PM
Waning Crescent, 12% visible
METAR KBUF 301554Z 09009KT 10SM FEW040 BKN070 BKN110 BKN140 22/16 A3004 RMK AO2 RAB17E37 SLP168 P0000 T02220156 $
Pressure 30.03 in
Visibility 10.0 miles
Clouds Few 4000 ft
Mostly Cloudy 7000 ft
Mostly Cloudy 11000 ft
Mostly Cloudy 14000 ft
Dew Point 66 °F
Humidity 89%
Rainfall 0.07 in
Snow Depth Not available.
6:04 AM 8:37 PM
Waning Crescent, 12% visible
METAR KBUF 301554Z 09009KT 10SM FEW040 BKN070 BKN110 BKN140 22/16 A3004 RMK AO2 RAB17E37 SLP168 P0000 T02220156 $

10-Day Weather Forecast

Almanac

Astronomy

Jul. 30, 2016 Rise Set
Actual Time
Civil Twilight
Nautical Twilight
Astronomical Twilight
Moon
Length of Visible Light
Length of Day
Tomorrow will be .
, % of the Moon is Illuminated

Today's Extremes

State Highs State Lows

Community

WunderPhotos

Upload Photos

1,928,588 photos uploaded!

WunderBlog® & News

Nearby

Air Quality

  Air Quality AQ Index Pollutant
Not available.

Snow Depth

Station Depth Elevation

Earthquake Activity

City Distance Mag. Time & Date
Minimum magnitude displayed is 2.5.

Coastal Water Temperatures

Place Temperature

Stations

Nearby Weather Stations

Station Location Temp. Windchill Dew Point Humidity Wind Precip. Elev Updated Type
                   

Watches & Warnings

There are currently no watches in effect.